Spirit of St Louis Airport
KSUS : now visible

Airfield :











YOU CAN JOIN US ON...

 
LOGIN :

Register | Disclaimer

   EN    FR    IT 

 









Legend :    VFR   Marginal VFR   IFR   Intensive IFR   Very Intensive IFR
Visi :
Ceiling :
>= 8 km
>= 3000ft
5 to 8 km
1000 to 3000 ft
1500m to 5 km
500 to 1000 ft
800 to 1500m
200 to 500 ft
< 800m
< 200 ft
Symbols :   Thunderstorms  Fog  Heavy snow  Heavy precipitations  Wind > 20 kt






- Airport Elevation : 463 ft


KSUS - Spirit of St Louis

CURRENT METAR :
  • 271554Z 33005KT 1/4SM R08R/2600V3500FT SN FZFG VV009 M02/M03 A3028 RMK AO2 SLP265 P0006 T10171028

EXPIRED METARs :
  • 271454Z 03005KT 1 1/2SM -SN BR OVC013 M02/M03 A3022 RMK AO2 SNB13 SLP243 P0000 60000 T10171033 53001
  • 271354Z 03005KT 2SM BR BKN010 OVC015 M02/M03 A3021 RMK AO2 SNE26 SLP240 P0000 T10171033

TAF KSUS
Valid from the 27 at 14:00 until the 28 at 12:00 UTC


271426Z 2714/2812 04007KT 1SM -SN BR OVC008
TEMPO 2715/2717 1/2SM SN FZFG
FM271900 36008KT P6SM VCSH OVC007
FM272100 36009KT P6SM OVC012
FM280400 35005KT P6SM SCT035
KZKC FIR / North America



MET'MAP, your aeronautical weather chart ! - Copyright ORBIFLY December 2007 - Disclaimer

ORBIFLY MET'MAP TEAM :

Programming & Development : Alexandra Zaïnal
Concept & original design : Baudouin d'Aumeries
Assistance for programming : Marc-Olivier Méhu
Technical & hardware support : Manuel Goepfert

Contact : metmap@orbifly.com




SOURCES & CREDITS :

   NOAA       Earth
Advisory